Time;durP1;ratioP1;P1;durP2;ratioP2;P2;SDS_P1;SDS_P2;PMS_P1;PMS_P2;Temp;Humidity;BMP_temperature;BMP_pressure;BME280_temperature;BME280_humidity;BME280_pressure;Samples;Min_cycle;Max_cycle;Signal;HPM_P1;HPM_P2
2022/11/12 00:00:29;0.00;0.00;0.62;0.00;0.00;0.62;2.27;1.60;;;26.90;26.50;;;;;;2259509;61;20380;-69
2022/11/12 00:03:33;0.00;0.00;0.62;0.00;0.00;0.62;2.23;1.70;;;26.90;26.50;;;;;;2260212;61;20381;-70
2022/11/12 00:06:38;0.00;0.00;0.62;0.00;0.00;0.62;2.50;2.00;;;26.90;26.40;;;;;;2259343;61;20404;-70
2022/11/12 00:09:41;0.00;0.00;0.62;0.00;0.00;0.62;2.60;1.87;;;26.90;26.40;;;;;;2260191;61;20376;-70
2022/11/12 00:12:45;0.00;0.00;0.62;0.00;0.00;0.62;2.80;2.00;;;26.90;26.30;;;;;;2260048;61;20523;-70
2022/11/12 00:15:48;0.00;0.00;0.62;0.00;0.00;0.62;2.60;1.90;;;26.80;26.20;;;;;;2259871;61;20356;-69
2022/11/12 00:18:52;0.00;0.00;0.62;0.00;0.00;0.62;2.50;1.90;;;26.80;26.20;;;;;;2260224;61;20403;-70
2022/11/12 00:21:57;0.00;0.00;0.62;0.00;0.00;0.62;2.30;1.90;;;26.80;26.10;;;;;;2259088;61;20978;-69
2022/11/12 00:25:00;0.00;0.00;0.62;0.00;0.00;0.62;2.73;2.10;;;26.80;26.10;;;;;;2260331;61;20364;-70
2022/11/12 00:28:07;0.00;0.00;0.62;0.00;0.00;0.62;3.13;1.90;;;26.80;26.10;;;;;;2259612;61;20356;-70
2022/11/12 00:31:11;0.00;0.00;0.62;0.00;0.00;0.62;2.47;2.10;;;26.70;26.10;;;;;;2260111;61;20793;-69
2022/11/12 00:34:15;0.00;0.00;0.62;0.00;0.00;0.62;2.43;1.90;;;26.70;26.10;;;;;;2259689;61;20879;-69
2022/11/12 00:37:21;0.00;0.00;0.62;0.00;0.00;0.62;2.00;1.70;;;26.70;26.20;;;;;;2259609;61;20380;-69
2022/11/12 00:40:25;0.00;0.00;0.62;0.00;0.00;0.62;2.70;2.03;;;26.60;26.10;;;;;;2259799;61;20388;-67
2022/11/12 00:43:30;0.00;0.00;0.62;0.00;0.00;0.62;4.17;1.90;;;26.70;26.20;;;;;;2259106;61;20938;-67
2022/11/12 00:46:33;0.00;0.00;0.62;0.00;0.00;0.62;3.87;2.03;;;26.60;26.10;;;;;;2260454;61;20357;-67
2022/11/12 00:49:37;0.00;0.00;0.62;0.00;0.00;0.62;2.90;2.20;;;26.60;26.20;;;;;;2259533;61;20661;-67
2022/11/12 00:52:42;0.00;0.00;0.62;0.00;0.00;0.62;3.17;2.33;;;26.60;26.20;;;;;;2259917;61;20435;-67
2022/11/12 00:55:45;0.00;0.00;0.62;0.00;0.00;0.62;2.77;1.90;;;26.60;26.20;;;;;;2259666;61;20380;-70
2022/11/12 00:58:49;0.00;0.00;0.62;0.00;0.00;0.62;3.00;2.53;;;26.50;26.10;;;;;;2259654;61;20881;-70
2022/11/12 01:01:53;0.00;0.00;0.62;0.00;0.00;0.62;2.77;2.33;;;26.50;26.00;;;;;;2259569;61;20991;-68
2022/11/12 01:04:56;0.00;0.00;0.62;0.00;0.00;0.62;3.10;2.73;;;26.50;26.00;;;;;;2259708;61;20356;-68
2022/11/12 01:08:01;0.00;0.00;0.62;0.00;0.00;0.62;2.70;2.10;;;26.50;25.90;;;;;;2260055;61;20357;-68
2022/11/12 01:11:07;0.00;0.00;0.62;0.00;0.00;0.62;2.80;2.40;;;26.40;25.80;;;;;;2259448;61;20361;-65
2022/11/12 01:14:10;0.00;0.00;0.62;0.00;0.00;0.62;4.17;2.80;;;26.40;25.70;;;;;;2259647;61;20396;-69
2022/11/12 01:17:14;0.00;0.00;0.62;0.00;0.00;0.62;3.60;2.67;;;26.40;25.70;;;;;;2259517;61;20408;-69
2022/11/12 01:20:17;0.00;0.00;0.62;0.00;0.00;0.62;2.93;2.53;;;26.30;25.60;;;;;;2259322;61;20496;-69
2022/11/12 01:23:22;0.00;0.00;0.62;0.00;0.00;0.62;3.30;2.53;;;26.30;25.50;;;;;;2259660;61;20451;-68
2022/11/12 01:26:27;0.00;0.00;0.62;0.00;0.00;0.62;5.27;2.40;;;26.30;25.50;;;;;;2259776;61;20400;-69
2022/11/12 01:29:30;0.00;0.00;0.62;0.00;0.00;0.62;3.30;2.73;;;26.30;25.40;;;;;;2258985;61;20597;-68
2022/11/12 01:32:36;0.00;0.00;0.62;0.00;0.00;0.62;2.73;2.33;;;26.20;25.30;;;;;;2259613;61;20435;-68
2022/11/12 01:35:39;0.00;0.00;0.62;0.00;0.00;0.62;2.67;2.47;;;26.20;25.30;;;;;;2258823;61;20544;-68
2022/11/12 01:38:46;0.00;0.00;0.62;0.00;0.00;0.62;2.97;2.63;;;26.10;25.30;;;;;;2259803;61;20365;-67
2022/11/12 01:41:50;0.00;0.00;0.62;0.00;0.00;0.62;3.40;2.37;;;26.10;25.30;;;;;;2259235;61;20408;-69
2022/11/12 01:44:54;0.00;0.00;0.62;0.00;0.00;0.62;3.90;2.67;;;26.00;25.20;;;;;;2259745;61;20443;-67
2022/11/12 01:47:57;0.00;0.00;0.62;0.00;0.00;0.62;3.50;3.20;;;26.00;25.20;;;;;;2259915;61;20408;-67
2022/11/12 01:51:02;0.00;0.00;0.62;0.00;0.00;0.62;3.63;2.60;;;26.00;25.30;;;;;;2259052;61;20815;-66
2022/11/12 01:54:12;0.00;0.00;0.62;0.00;0.00;0.62;4.40;2.80;;;26.00;25.30;;;;;;2259787;61;20443;-65
2022/11/12 01:57:20;0.00;0.00;0.62;0.00;0.00;0.62;3.23;2.57;;;25.90;25.20;;;;;;2258892;61;20369;-67
2022/11/12 02:00:24;0.00;0.00;0.62;0.00;0.00;0.62;4.10;2.67;;;25.90;25.30;;;;;;2259758;61;20380;-67
2022/11/12 02:03:27;0.00;0.00;0.62;0.00;0.00;0.62;3.77;2.50;;;25.90;25.30;;;;;;2259280;61;20420;-66
2022/11/12 02:06:31;0.00;0.00;0.62;0.00;0.00;0.62;3.17;2.80;;;25.90;25.30;;;;;;2259531;61;20414;-69
2022/11/12 02:09:37;0.00;0.00;0.62;0.00;0.00;0.62;4.17;3.23;;;25.90;25.30;;;;;;2259421;61;20408;-68
2022/11/12 02:16:06;0.00;0.00;0.62;0.00;0.00;0.62;2.57;2.30;;;25.80;25.30;;;;;;2259536;61;20357;-67
2022/11/12 02:19:12;0.00;0.00;0.62;0.00;0.00;0.62;3.53;2.60;;;25.80;25.30;;;;;;2259342;61;20360;-68
2022/11/12 02:22:17;0.00;0.00;0.62;0.00;0.00;0.62;2.77;2.50;;;25.80;25.20;;;;;;2259680;61;20834;-68
2022/11/12 02:25:24;0.00;0.00;0.62;0.00;0.00;0.62;4.17;2.73;;;25.70;25.70;;;;;;2259231;61;20345;-68
2022/11/12 02:28:30;0.00;0.00;0.62;0.00;0.00;0.62;3.27;2.70;;;25.70;25.20;;;;;;2259382;61;20381;-67
2022/11/12 02:31:34;0.00;0.00;0.62;0.00;0.00;0.62;3.27;2.60;;;25.70;25.20;;;;;;2259249;61;20376;-66
2022/11/12 02:34:38;0.00;0.00;0.62;0.00;0.00;0.62;3.00;2.23;;;25.70;25.20;;;;;;2259160;61;20880;-67
2022/11/12 02:37:43;0.00;0.00;0.62;0.00;0.00;0.62;3.57;2.63;;;25.70;25.10;;;;;;2259719;61;20365;-65
2022/11/12 02:40:46;0.00;0.00;0.62;0.00;0.00;0.62;2.73;2.13;;;25.60;25.60;;;;;;2259258;61;20468;-66
2022/11/12 02:43:50;0.00;0.00;0.62;0.00;0.00;0.62;4.10;2.93;;;25.60;25.00;;;;;;2259380;61;20404;-68
2022/11/12 02:46:53;0.00;0.00;0.62;0.00;0.00;0.62;3.67;3.13;;;25.50;25.00;;;;;;2260168;61;20364;-68
2022/11/12 02:49:56;0.00;0.00;0.62;0.00;0.00;0.62;4.50;2.47;;;25.50;25.00;;;;;;2259989;61;20424;-66
2022/11/12 02:53:01;0.00;0.00;0.62;0.00;0.00;0.62;3.00;2.50;;;25.50;25.00;;;;;;2260109;61;20380;-67
2022/11/12 02:56:05;0.00;0.00;0.62;0.00;0.00;0.62;3.60;2.80;;;25.40;24.90;;;;;;2270120;61;20396;-66
2022/11/12 02:59:09;0.00;0.00;0.62;0.00;0.00;0.62;3.70;2.57;;;25.40;25.00;;;;;;2270144;60;20392;-67
2022/11/12 03:02:13;0.00;0.00;0.62;0.00;0.00;0.62;3.07;2.37;;;25.40;25.00;;;;;;2272389;60;20393;-69
2022/11/12 03:05:16;0.00;0.00;0.62;0.00;0.00;0.62;3.20;2.47;;;25.40;25.00;;;;;;2261312;61;20413;-68
2022/11/12 03:08:21;0.00;0.00;0.62;0.00;0.00;0.62;3.10;2.53;;;25.40;25.00;;;;;;2264590;61;20452;-69
2022/11/12 03:11:26;0.00;0.00;0.62;0.00;0.00;0.62;3.03;2.30;;;25.30;25.00;;;;;;2263305;61;20444;-67
2022/11/12 03:14:29;0.00;0.00;0.62;0.00;0.00;0.62;4.20;2.93;;;25.30;25.00;;;;;;2264765;61;20803;-66
2022/11/12 03:17:33;0.00;0.00;0.62;0.00;0.00;0.62;3.17;2.47;;;25.30;25.00;;;;;;2263960;61;20765;-67
2022/11/12 03:20:37;0.00;0.00;0.62;0.00;0.00;0.62;3.00;2.20;;;25.20;25.00;;;;;;2263593;61;20390;-67
2022/11/12 03:23:42;0.00;0.00;0.62;0.00;0.00;0.62;3.73;3.07;;;25.20;25.00;;;;;;2264351;61;20379;-66
2022/11/12 03:26:46;0.00;0.00;0.62;0.00;0.00;0.62;2.43;1.97;;;25.20;25.00;;;;;;2263797;61;20451;-66
2022/11/12 03:29:49;0.00;0.00;0.62;0.00;0.00;0.62;3.33;2.20;;;25.20;25.10;;;;;;2264112;61;20391;-66
2022/11/12 03:32:53;0.00;0.00;0.62;0.00;0.00;0.62;2.97;1.97;;;25.20;25.10;;;;;;2263782;61;20379;-66
2022/11/12 03:35:56;0.00;0.00;0.62;0.00;0.00;0.62;2.97;2.20;;;25.10;25.50;;;;;;2264064;61;20394;-66
2022/11/12 03:39:01;0.00;0.00;0.62;0.00;0.00;0.62;4.00;2.33;;;25.10;25.00;;;;;;2264224;61;20505;-68
2022/11/12 03:42:05;0.00;0.00;0.62;0.00;0.00;0.62;2.40;2.10;;;25.10;25.60;;;;;;2263369;61;20388;-65
2022/11/12 03:45:09;0.00;0.00;0.62;0.00;0.00;0.62;2.90;2.20;;;25.10;25.00;;;;;;2264182;61;20403;-67
2022/11/12 03:48:12;0.00;0.00;0.62;0.00;0.00;0.62;4.23;2.27;;;25.10;25.10;;;;;;2263373;61;20356;-67
2022/11/12 03:51:17;0.00;0.00;0.62;0.00;0.00;0.62;3.90;2.60;;;25.10;25.10;;;;;;2264160;61;20486;-68
2022/11/12 03:54:22;0.00;0.00;0.62;0.00;0.00;0.62;2.90;2.17;;;25.00;25.10;;;;;;2263730;61;20364;-66
2022/11/12 03:57:26;0.00;0.00;0.62;0.00;0.00;0.62;3.23;2.27;;;25.00;25.00;;;;;;2263398;61;20410;-66
2022/11/12 04:00:30;0.00;0.00;0.62;0.00;0.00;0.62;3.50;2.50;;;25.00;25.00;;;;;;2263893;61;20776;-66
2022/11/12 04:03:34;0.00;0.00;0.62;0.00;0.00;0.62;3.17;2.20;;;25.00;25.00;;;;;;2264833;61;20754;-67
2022/11/12 04:10:02;0.00;0.00;0.62;0.00;0.00;0.62;3.23;2.30;;;25.00;25.60;;;;;;2267570;61;20922;-67
2022/11/12 04:23:13;0.00;0.00;0.62;0.00;0.00;0.62;2.50;2.00;;;24.90;25.00;;;;;;2267602;61;20483;-67
2022/11/12 04:26:23;0.00;0.00;0.62;0.00;0.00;0.62;3.40;2.50;;;24.80;24.90;;;;;;2267970;61;20902;-66
2022/11/12 04:32:55;0.00;0.00;0.62;0.00;0.00;0.62;2.20;1.80;;;24.80;24.90;;;;;;2267518;61;20374;-67
2022/11/12 04:35:59;0.00;0.00;0.62;0.00;0.00;0.62;2.37;2.07;;;24.70;24.90;;;;;;2267883;61;20572;-68
2022/11/12 04:39:03;0.00;0.00;0.62;0.00;0.00;0.62;2.90;2.40;;;24.70;24.90;;;;;;2267759;61;20444;-66
2022/11/12 04:45:32;0.00;0.00;0.62;0.00;0.00;0.62;3.53;2.40;;;24.70;25.40;;;;;;2268123;61;20359;-67
2022/11/12 04:48:35;0.00;0.00;0.62;0.00;0.00;0.62;3.07;2.53;;;24.60;24.90;;;;;;2267903;61;20351;-66
2022/11/12 04:55:01;0.00;0.00;0.62;0.00;0.00;0.62;5.10;2.33;;;24.60;24.90;;;;;;2267554;61;20772;-65
2022/11/12 04:58:06;0.00;0.00;0.62;0.00;0.00;0.62;2.77;2.37;;;24.60;24.90;;;;;;2267776;61;20355;-66
2022/11/12 05:01:10;0.00;0.00;0.62;0.00;0.00;0.62;3.00;2.40;;;24.50;24.80;;;;;;2267650;61;20386;-66
2022/11/12 05:04:13;0.00;0.00;0.62;0.00;0.00;0.62;2.70;1.93;;;24.50;24.80;;;;;;2263966;61;20907;-67
2022/11/12 05:07:17;0.00;0.00;0.62;0.00;0.00;0.62;2.90;2.10;;;24.50;24.80;;;;;;2259880;61;20415;-66
2022/11/12 05:10:21;0.00;0.00;0.62;0.00;0.00;0.62;2.70;2.23;;;24.50;24.80;;;;;;2258809;61;20956;-65
2022/11/12 05:13:28;0.00;0.00;0.62;0.00;0.00;0.62;2.80;2.27;;;24.50;24.80;;;;;;2259748;61;20427;-67
2022/11/12 05:16:31;0.00;0.00;0.62;0.00;0.00;0.62;2.60;2.00;;;24.50;24.80;;;;;;2259305;61;20404;-67
2022/11/12 05:19:35;0.00;0.00;0.62;0.00;0.00;0.62;3.00;2.00;;;24.40;24.80;;;;;;2259939;61;20353;-68
2022/11/12 05:22:39;0.00;0.00;0.62;0.00;0.00;0.62;3.27;2.10;;;24.40;24.80;;;;;;2259669;61;20400;-65
2022/11/12 05:25:42;0.00;0.00;0.62;0.00;0.00;0.62;2.63;1.90;;;24.40;24.80;;;;;;2259307;61;20356;-68
2022/11/12 05:28:47;0.00;0.00;0.62;0.00;0.00;0.62;2.47;2.27;;;24.40;24.80;;;;;;2259955;61;20365;-66
2022/11/12 05:31:51;0.00;0.00;0.62;0.00;0.00;0.62;3.93;2.13;;;24.40;24.80;;;;;;2258707;61;20822;-69
2022/11/12 05:34:54;0.00;0.00;0.62;0.00;0.00;0.62;4.00;2.07;;;24.30;24.70;;;;;;2260145;61;20447;-68
2022/11/12 05:37:57;0.00;0.00;0.62;0.00;0.00;0.62;3.53;2.13;;;24.30;24.70;;;;;;2259096;61;20388;-66
2022/11/12 05:41:01;0.00;0.00;0.62;0.00;0.00;0.62;3.27;2.27;;;24.30;24.70;;;;;;2259282;61;20423;-69
2022/11/12 05:44:06;0.00;0.00;0.62;0.00;0.00;0.62;2.73;2.43;;;24.30;24.80;;;;;;2259597;61;20364;-67
2022/11/12 05:47:09;0.00;0.00;0.62;0.00;0.00;0.62;1.90;1.53;;;24.30;24.80;;;;;;2259046;61;20404;-66
2022/11/12 05:50:13;0.00;0.00;0.62;0.00;0.00;0.62;3.70;2.80;;;24.30;24.80;;;;;;2259593;61;20357;-67
2022/11/12 05:53:17;0.00;0.00;0.62;0.00;0.00;0.62;2.83;2.07;;;24.20;24.70;;;;;;2259351;61;20927;-68
2022/11/12 05:56:20;0.00;0.00;0.62;0.00;0.00;0.62;3.20;2.60;;;24.20;24.70;;;;;;2259680;61;20411;-67
2022/11/12 05:59:25;0.00;0.00;0.62;0.00;0.00;0.62;2.63;2.00;;;24.20;24.70;;;;;;2259403;61;20357;-68
2022/11/12 06:02:29;0.00;0.00;0.62;0.00;0.00;0.62;2.97;2.67;;;24.20;25.30;;;;;;2259182;61;20393;-69
2022/11/12 06:05:33;0.00;0.00;0.62;0.00;0.00;0.62;2.93;2.27;;;24.10;24.70;;;;;;2259335;61;20365;-68
2022/11/12 06:08:37;0.00;0.00;0.62;0.00;0.00;0.62;2.80;2.13;;;24.10;24.70;;;;;;2259343;61;20368;-69
2022/11/12 06:11:40;0.00;0.00;0.62;0.00;0.00;0.62;3.03;2.03;;;24.10;24.70;;;;;;2259372;61;20498;-67
2022/11/12 06:14:45;0.00;0.00;0.62;0.00;0.00;0.62;3.10;2.20;;;24.10;24.70;;;;;;2259267;61;20484;-67
2022/11/12 06:17:49;0.00;0.00;0.62;0.00;0.00;0.62;3.43;2.20;;;24.00;24.60;;;;;;2258875;61;20365;-67
2022/11/12 06:24:15;0.00;0.00;0.62;0.00;0.00;0.62;3.00;2.50;;;24.00;25.20;;;;;;2259137;61;20381;-67
2022/11/12 06:27:18;0.00;0.00;0.62;0.00;0.00;0.62;2.40;1.70;;;24.00;24.70;;;;;;2259466;61;20421;-68
2022/11/12 06:30:23;0.00;0.00;0.62;0.00;0.00;0.62;3.17;2.33;;;24.00;24.70;;;;;;2259340;61;20364;-69
2022/11/12 06:33:27;0.00;0.00;0.62;0.00;0.00;0.62;2.30;1.83;;;24.00;24.70;;;;;;2259397;61;20477;-66
2022/11/12 06:36:31;0.00;0.00;0.62;0.00;0.00;0.62;2.87;2.30;;;24.00;24.70;;;;;;2259763;61;20818;-68
2022/11/12 06:39:34;0.00;0.00;0.62;0.00;0.00;0.62;3.40;2.03;;;23.90;24.70;;;;;;2258950;61;20450;-68
2022/11/12 06:42:38;0.00;0.00;0.62;0.00;0.00;0.62;2.77;2.20;;;23.90;24.70;;;;;;2259148;61;20450;-67
2022/11/12 06:45:43;0.00;0.00;0.62;0.00;0.00;0.62;3.90;2.17;;;23.90;24.70;;;;;;2258924;61;20880;-68
2022/11/12 06:48:46;0.00;0.00;0.62;0.00;0.00;0.62;5.27;2.90;;;23.90;24.70;;;;;;2259964;61;20404;-70
2022/11/12 06:51:50;0.00;0.00;0.62;0.00;0.00;0.62;3.00;2.23;;;23.80;24.60;;;;;;2258966;61;20411;-71
2022/11/12 06:54:53;0.00;0.00;0.62;0.00;0.00;0.62;3.13;2.30;;;23.80;24.50;;;;;;2259368;61;20408;-70
2022/11/12 06:57:57;0.00;0.00;0.62;0.00;0.00;0.62;2.43;2.03;;;23.70;24.50;;;;;;2259554;61;20368;-70
2022/11/12 07:01:08;0.00;0.00;0.62;0.00;0.00;0.62;3.70;2.57;;;23.70;24.50;;;;;;2258633;61;20443;-69
2022/11/12 07:04:12;0.00;0.00;0.62;0.00;0.00;0.62;2.40;2.13;;;23.70;24.60;;;;;;2259610;61;20404;-70
2022/11/12 07:07:16;0.00;0.00;0.62;0.00;0.00;0.62;2.30;2.10;;;23.60;24.50;;;;;;2259269;61;20391;-67
2022/11/12 07:10:19;0.00;0.00;0.62;0.00;0.00;0.62;3.93;2.43;;;23.60;24.50;;;;;;2259507;61;20907;-68
2022/11/12 07:13:23;0.00;0.00;0.62;0.00;0.00;0.62;6.33;2.50;;;23.60;24.60;;;;;;2259098;61;20377;-68
2022/11/12 07:16:28;0.00;0.00;0.62;0.00;0.00;0.62;2.57;2.17;;;23.60;24.70;;;;;;2259465;61;20361;-69
2022/11/12 07:19:32;0.00;0.00;0.62;0.00;0.00;0.62;3.13;2.30;;;23.60;24.70;;;;;;2259049;61;20380;-69
2022/11/12 07:22:35;0.00;0.00;0.62;0.00;0.00;0.62;3.23;2.13;;;23.60;24.70;;;;;;2259218;61;20388;-68
2022/11/12 07:25:39;0.00;0.00;0.62;0.00;0.00;0.62;2.70;2.20;;;23.60;24.80;;;;;;2259474;61;20388;-69
2022/11/12 07:28:43;0.00;0.00;0.62;0.00;0.00;0.62;3.57;2.40;;;23.60;24.80;;;;;;2259138;61;20483;-68
2022/11/12 07:31:48;0.00;0.00;0.62;0.00;0.00;0.62;3.10;2.40;;;23.60;24.80;;;;;;2258910;61;20361;-69
2022/11/12 07:34:52;0.00;0.00;0.62;0.00;0.00;0.62;2.93;2.63;;;23.60;24.90;;;;;;2259980;61;20876;-68
2022/11/12 07:37:55;0.00;0.00;0.62;0.00;0.00;0.62;2.77;2.13;;;23.60;24.80;;;;;;2259401;61;20468;-68
2022/11/12 07:41:01;0.00;0.00;0.62;0.00;0.00;0.62;4.30;2.33;;;23.60;24.80;;;;;;2259740;61;20456;-69
2022/11/12 07:44:05;0.00;0.00;0.62;0.00;0.00;0.62;2.70;2.30;;;23.60;24.80;;;;;;2260174;61;20357;-69
2022/11/12 07:47:10;0.00;0.00;0.62;0.00;0.00;0.62;2.73;1.93;;;23.60;24.90;;;;;;2259630;61;20392;-69
2022/11/12 07:50:15;0.00;0.00;0.62;0.00;0.00;0.62;2.13;1.70;;;23.60;24.90;;;;;;2260135;61;20400;-70
2022/11/12 07:53:19;0.00;0.00;0.62;0.00;0.00;0.62;3.10;2.00;;;23.70;25.00;;;;;;2259406;61;20372;-68
2022/11/12 07:56:24;0.00;0.00;0.62;0.00;0.00;0.62;2.70;2.30;;;23.70;25.50;;;;;;2260212;61;20364;-68
2022/11/12 07:59:28;0.00;0.00;0.62;0.00;0.00;0.62;2.20;1.73;;;23.70;25.00;;;;;;2260004;61;20361;-69
2022/11/12 08:02:33;0.00;0.00;0.62;0.00;0.00;0.62;2.63;1.90;;;23.70;25.00;;;;;;2260136;61;20408;-70
2022/11/12 08:05:37;0.00;0.00;0.62;0.00;0.00;0.62;2.73;2.00;;;23.70;25.00;;;;;;2259874;61;20776;-69
2022/11/12 08:08:40;0.00;0.00;0.62;0.00;0.00;0.62;4.63;2.00;;;23.70;25.00;;;;;;2259423;61;20472;-70
2022/11/12 08:11:44;0.00;0.00;0.62;0.00;0.00;0.62;2.50;1.77;;;23.70;25.00;;;;;;2260084;61;20353;-69
2022/11/12 08:14:47;0.00;0.00;0.62;0.00;0.00;0.62;2.37;1.87;;;23.70;25.00;;;;;;2259274;61;20454;-69
2022/11/12 08:17:52;0.00;0.00;0.62;0.00;0.00;0.62;2.30;1.90;;;23.70;25.10;;;;;;2260182;61;20407;-70
2022/11/12 08:20:59;0.00;0.00;0.62;0.00;0.00;0.62;2.50;2.30;;;23.80;25.20;;;;;;2259492;61;20873;-69
2022/11/12 08:24:03;0.00;0.00;0.62;0.00;0.00;0.62;3.00;2.30;;;23.80;25.20;;;;;;2259672;61;20361;-69
2022/11/12 08:27:07;0.00;0.00;0.62;0.00;0.00;0.62;2.90;2.13;;;23.80;25.20;;;;;;2260131;61;20453;-68
2022/11/12 08:30:12;0.00;0.00;0.62;0.00;0.00;0.62;2.03;1.80;;;23.80;25.20;;;;;;2259352;61;20361;-69
2022/11/12 08:33:17;0.00;0.00;0.62;0.00;0.00;0.62;2.10;1.50;;;23.80;25.30;;;;;;2259991;61;20783;-68
2022/11/12 08:36:21;0.00;0.00;0.62;0.00;0.00;0.62;2.93;1.97;;;23.90;25.30;;;;;;2259679;61;20838;-68
2022/11/12 08:39:25;0.00;0.00;0.62;0.00;0.00;0.62;2.47;1.77;;;23.90;25.40;;;;;;2260153;61;20399;-68
2022/11/12 08:42:28;0.00;0.00;0.62;0.00;0.00;0.62;2.33;1.80;;;23.90;25.40;;;;;;2259402;61;21227;-69
2022/11/12 08:45:33;0.00;0.00;0.62;0.00;0.00;0.62;2.63;2.03;;;23.90;25.40;;;;;;2259839;61;20480;-69
2022/11/12 08:48:39;0.00;0.00;0.62;0.00;0.00;0.62;3.20;1.93;;;23.90;25.40;;;;;;2259714;61;20357;-69
2022/11/12 08:51:43;0.00;0.00;0.62;0.00;0.00;0.62;3.40;1.83;;;24.00;25.40;;;;;;2259338;61;20381;-69
2022/11/12 08:54:47;0.00;0.00;0.62;0.00;0.00;0.62;2.80;1.90;;;24.00;25.50;;;;;;2260013;61;20388;-70
2022/11/12 08:57:50;0.00;0.00;0.62;0.00;0.00;0.62;3.40;2.20;;;24.00;25.50;;;;;;2259723;61;20368;-69
2022/11/12 09:00:54;0.00;0.00;0.62;0.00;0.00;0.62;3.30;1.60;;;24.00;25.50;;;;;;2259313;61;20432;-70
2022/11/12 09:03:59;0.00;0.00;0.62;0.00;0.00;0.62;2.23;1.80;;;24.10;25.50;;;;;;2259367;61;20477;-70
2022/11/12 09:07:02;0.00;0.00;0.62;0.00;0.00;0.62;2.57;1.93;;;24.10;25.50;;;;;;2259312;61;20944;-69
2022/11/12 09:10:07;0.00;0.00;0.62;0.00;0.00;0.62;2.63;1.70;;;24.10;25.60;;;;;;2259593;61;20357;-70
2022/11/12 09:13:11;0.00;0.00;0.62;0.00;0.00;0.62;2.50;1.70;;;24.10;25.50;;;;;;2259685;61;20431;-69
2022/11/12 09:16:14;0.00;0.00;0.62;0.00;0.00;0.62;2.40;1.70;;;24.10;25.50;;;;;;2259708;61;20960;-69
2022/11/12 09:19:19;0.00;0.00;0.62;0.00;0.00;0.62;2.50;1.80;;;24.20;25.60;;;;;;2259854;61;20411;-69
2022/11/12 09:22:23;0.00;0.00;0.62;0.00;0.00;0.62;2.60;2.10;;;24.20;25.60;;;;;;2258963;61;20514;-68
2022/11/12 09:25:27;0.00;0.00;0.62;0.00;0.00;0.62;2.67;1.67;;;24.20;25.60;;;;;;2260041;61;20384;-68
2022/11/12 09:28:32;0.00;0.00;0.62;0.00;0.00;0.62;2.40;1.83;;;24.20;25.50;;;;;;2259259;61;20828;-68
2022/11/12 09:31:35;0.00;0.00;0.62;0.00;0.00;0.62;2.30;1.87;;;24.30;26.10;;;;;;2259888;61;20377;-69
2022/11/12 09:34:40;0.00;0.00;0.62;0.00;0.00;0.62;2.97;2.17;;;24.30;25.60;;;;;;2259667;61;20411;-69
2022/11/12 09:37:44;0.00;0.00;0.62;0.00;0.00;0.62;2.30;2.00;;;24.30;25.50;;;;;;2259476;61;20415;-68
2022/11/12 09:41:22;0.00;0.00;0.62;0.00;0.00;0.62;2.63;2.17;;;24.30;25.50;;;;;;2259644;61;20966;-68
2022/11/12 09:44:26;0.00;0.00;0.62;0.00;0.00;0.62;2.47;2.13;;;24.30;25.50;;;;;;2259300;61;20389;-70
2022/11/12 09:47:35;0.00;0.00;0.62;0.00;0.00;0.62;2.27;1.67;;;24.30;25.50;;;;;;2259734;61;20496;-69
2022/11/12 09:50:55;0.00;0.00;0.62;0.00;0.00;0.62;2.13;1.77;;;24.30;25.50;;;;;;2258944;61;20361;-69
2022/11/12 09:54:05;0.00;0.00;0.62;0.00;0.00;0.62;2.27;1.77;;;24.40;25.50;;;;;;2259933;61;20432;-69
2022/11/12 09:57:11;0.00;0.00;0.62;0.00;0.00;0.62;2.80;1.70;;;24.40;25.60;;;;;;2259271;61;20352;-69
2022/11/12 10:00:18;0.00;0.00;0.62;0.00;0.00;0.62;2.50;1.83;;;24.40;25.50;;;;;;2259244;61;20445;-69
2022/11/12 10:03:36;0.00;0.00;0.62;0.00;0.00;0.62;2.57;2.00;;;24.50;25.60;;;;;;2259663;61;20385;-70
2022/11/12 10:06:50;0.00;0.00;0.62;0.00;0.00;0.62;3.00;1.93;;;24.50;26.10;;;;;;2259465;61;20365;-68
2022/11/12 10:10:04;0.00;0.00;0.62;0.00;0.00;0.62;2.63;2.00;;;24.50;25.60;;;;;;2259463;61;20510;-69
2022/11/12 10:13:29;0.00;0.00;0.62;0.00;0.00;0.62;2.60;2.00;;;24.50;25.60;;;;;;2259297;61;20412;-68
2022/11/12 10:16:53;0.00;0.00;0.62;0.00;0.00;0.62;2.70;1.70;;;24.50;25.60;;;;;;2259582;61;20992;-68
2022/11/12 10:20:12;0.00;0.00;0.62;0.00;0.00;0.62;2.30;1.70;;;24.50;25.60;;;;;;2259491;61;20369;-68
2022/11/12 10:23:23;0.00;0.00;0.62;0.00;0.00;0.62;2.40;1.70;;;24.50;25.50;;;;;;2259645;61;20939;-68
2022/11/12 10:26:29;0.00;0.00;0.62;0.00;0.00;0.62;2.27;1.60;;;24.60;25.60;;;;;;2259566;61;20369;-68
2022/11/12 10:29:40;0.00;0.00;0.62;0.00;0.00;0.62;2.37;1.83;;;24.60;25.60;;;;;;2259232;61;20871;-68
2022/11/12 10:32:45;0.00;0.00;0.62;0.00;0.00;0.62;3.57;2.07;;;24.60;25.60;;;;;;2259732;61;20408;-69
2022/11/12 10:35:51;0.00;0.00;0.62;0.00;0.00;0.62;2.40;2.17;;;24.60;25.60;;;;;;2259060;61;20450;-68
2022/11/12 10:38:56;0.00;0.00;0.62;0.00;0.00;0.62;2.80;1.73;;;24.60;25.60;;;;;;2259532;61;20361;-69
2022/11/12 10:42:07;0.00;0.00;0.62;0.00;0.00;0.62;2.40;1.90;;;24.60;25.60;;;;;;2259258;61;20420;-68
2022/11/12 10:45:20;0.00;0.00;0.62;0.00;0.00;0.62;2.80;1.80;;;24.70;25.60;;;;;;2259357;61;20885;-68
2022/11/12 10:48:32;0.00;0.00;0.62;0.00;0.00;0.62;2.30;1.70;;;24.70;25.60;;;;;;2259590;61;20379;-69
2022/11/12 10:51:37;0.00;0.00;0.62;0.00;0.00;0.62;2.10;1.53;;;24.70;25.60;;;;;;2259016;61;20412;-68
2022/11/12 10:54:42;0.00;0.00;0.62;0.00;0.00;0.62;2.13;1.60;;;24.70;25.60;;;;;;2259627;61;20361;-69
2022/11/12 10:57:45;0.00;0.00;0.62;0.00;0.00;0.62;2.40;2.00;;;24.70;25.60;;;;;;2258633;61;20365;-68
2022/11/12 11:01:02;0.00;0.00;0.62;0.00;0.00;0.62;2.43;1.80;;;24.70;25.60;;;;;;2259704;61;20494;-68
2022/11/12 11:04:15;0.00;0.00;0.62;0.00;0.00;0.62;2.13;1.73;;;24.70;25.60;;;;;;2258781;61;20423;-69
2022/11/12 11:07:23;0.00;0.00;0.62;0.00;0.00;0.62;2.10;1.67;;;24.80;25.60;;;;;;2260437;61;20499;-69
2022/11/12 11:10:31;0.00;0.00;0.62;0.00;0.00;0.62;1.93;1.30;;;24.80;25.70;;;;;;2260035;61;20361;-69
2022/11/12 11:13:35;0.00;0.00;0.62;0.00;0.00;0.62;2.57;1.80;;;24.80;25.60;;;;;;2259923;61;20380;-68
2022/11/12 11:16:49;0.00;0.00;0.62;0.00;0.00;0.62;2.50;1.53;;;24.80;25.60;;;;;;2260437;61;20892;-69
2022/11/12 11:19:54;0.00;0.00;0.62;0.00;0.00;0.62;2.60;1.87;;;24.90;25.70;;;;;;2259315;61;20405;-68
2022/11/12 11:23:05;0.00;0.00;0.62;0.00;0.00;0.62;2.67;1.87;;;24.90;25.60;;;;;;2260477;61;20396;-68
2022/11/12 11:26:27;0.00;0.00;0.62;0.00;0.00;0.62;2.07;1.50;;;24.90;25.60;;;;;;2259906;61;20368;-69
2022/11/12 11:30:01;0.00;0.00;0.62;0.00;0.00;0.62;2.00;1.60;;;24.90;25.60;;;;;;2260249;61;20369;-69
2022/11/12 11:33:37;0.00;0.00;0.62;0.00;0.00;0.62;4.10;2.10;;;24.90;25.60;;;;;;2259817;61;20439;-69
2022/11/12 11:36:52;0.00;0.00;0.62;0.00;0.00;0.62;2.07;1.53;;;24.90;25.60;;;;;;2260357;61;20392;-68
2022/11/12 11:40:08;0.00;0.00;0.62;0.00;0.00;0.62;2.40;1.60;;;25.00;25.60;;;;;;2259804;61;20365;-68
2022/11/12 11:43:39;0.00;0.00;0.62;0.00;0.00;0.62;1.90;1.60;;;25.00;25.60;;;;;;2259893;61;20962;-68
2022/11/12 11:46:56;0.00;0.00;0.62;0.00;0.00;0.62;1.97;1.70;;;25.00;25.60;;;;;;2259911;61;20397;-68
2022/11/12 11:50:18;0.00;0.00;0.62;0.00;0.00;0.62;3.10;1.90;;;25.00;25.60;;;;;;2260111;61;20361;-70
2022/11/12 11:53:28;0.00;0.00;0.62;0.00;0.00;0.62;2.30;2.00;;;25.00;25.60;;;;;;2259687;61;20416;-68
2022/11/12 11:56:39;0.00;0.00;0.62;0.00;0.00;0.62;2.40;1.50;;;25.00;25.60;;;;;;2259545;61;20361;-69
2022/11/12 12:00:00;0.00;0.00;0.62;0.00;0.00;0.62;2.70;1.90;;;25.10;25.60;;;;;;2260086;61;20372;-69
2022/11/12 12:03:18;0.00;0.00;0.62;0.00;0.00;0.62;2.57;2.10;;;25.00;25.60;;;;;;2259961;61;20465;-68
2022/11/12 12:06:25;0.00;0.00;0.62;0.00;0.00;0.62;2.33;1.90;;;25.10;25.60;;;;;;2259957;61;20877;-68
2022/11/12 12:09:36;0.00;0.00;0.62;0.00;0.00;0.62;2.50;1.90;;;25.10;25.60;;;;;;2260030;61;20357;-68
2022/11/12 12:12:55;0.00;0.00;0.62;0.00;0.00;0.62;1.70;1.27;;;25.10;25.60;;;;;;2259453;61;20376;-70
2022/11/12 12:16:52;0.00;0.00;0.62;0.00;0.00;0.62;2.40;1.67;;;25.10;25.60;;;;;;2260074;61;20425;-69
2022/11/12 12:20:08;0.00;0.00;0.62;0.00;0.00;0.62;2.80;1.90;;;25.10;25.60;;;;;;2259308;61;20849;-68
2022/11/12 12:23:24;0.00;0.00;0.62;0.00;0.00;0.62;2.53;1.90;;;25.10;25.60;;;;;;2260048;61;20439;-68
2022/11/12 12:26:35;0.00;0.00;0.62;0.00;0.00;0.62;3.10;1.87;;;25.20;25.60;;;;;;2259257;61;20397;-69
2022/11/12 12:29:42;0.00;0.00;0.62;0.00;0.00;0.62;2.23;1.60;;;25.20;25.60;;;;;;2260168;61;20892;-68
2022/11/12 12:32:55;0.00;0.00;0.62;0.00;0.00;0.62;2.10;1.60;;;25.20;25.60;;;;;;2260047;61;20869;-69
2022/11/12 12:36:04;0.00;0.00;0.62;0.00;0.00;0.62;2.20;1.70;;;25.20;25.60;;;;;;2259970;61;20416;-69
2022/11/12 12:39:16;0.00;0.00;0.62;0.00;0.00;0.62;2.30;1.80;;;25.20;25.60;;;;;;2260070;61;20512;-69
2022/11/12 12:42:26;0.00;0.00;0.62;0.00;0.00;0.62;2.60;1.87;;;25.20;25.60;;;;;;2259205;61;20424;-68
2022/11/12 12:45:39;0.00;0.00;0.62;0.00;0.00;0.62;3.90;1.97;;;25.20;25.60;;;;;;2260112;61;20449;-68